Flight Track Log - Related Links

Times and Time Zones

All times are in EDT time to prevent confusion due to time zone crossing. See the GJS3649 flight status page for this flight to view local times or setup timezone preferences in your user account.

Time Position Orientation Groundspeed Altitude Reporting Facility
EDT Latitude Longitude Course Direction KTS MPH feet Rate Location/Type
Sun 08:33:37 AM 38.8833 -77.4333 218° Southwest 212 244 2,400  Level Potomac TRACON
Sun 08:35:18 AM 38.7633 -77.4606 190° South 253 291 7,200 2,778 Climbing Washington Center
Sun 08:36:00 AM 38.5497 -77.6818 185° South  Level Estimated
Sun 08:36:19 AM 38.6939 -77.5014 205° Southwest 266 306 9,900  Level Washington Center
Sun 08:37:00 AM 38.4576 -77.6087 148° Southeast  Level FlightAware Approximate
Sun 08:37:20 AM 38.6239 -77.5714 218° Southwest 293 337 11,600  Level Washington Center
Sun 08:38:00 AM 38.3586 -77.6652 218° Southwest  Level Estimated
Sun 08:38:21 AM 38.5433 -77.6489 217° Southwest 335 386 13,800  Level Washington Center
Sun 08:39:20 AM 38.4608 -77.7289 217° Southwest 368 423 15,800 1,949 Climbing Washington Center
Sun 08:40:18 AM 38.3736 -77.8136 217° Southwest 386 444 17,600 1,750 Climbing Washington Center
Sun 08:41:20 AM 38.2844 -77.8983 217° Southwest 399 459 19,300 1,650 Climbing Washington Center
Sun 08:42:18 AM 38.1953 -77.9828 217° Southwest 404 465 20,900 1,300 Climbing Washington Center
Sun 08:43:20 AM 38.1017 -78.0722 217° Southwest 415 478 21,900 976 Climbing Washington Center
Sun 08:44:21 AM 38.0039 -78.1611 216° Southwest 428 493 22,900 1,017 Climbing Washington Center
Sun 08:45:18 AM 37.9100 -78.2581 219° Southwest 434 499 23,900 1,017 Climbing Washington Center
Sun 08:46:19 AM 37.8119 -78.3492 216° Southwest 439 505 24,900 1,000 Climbing Washington Center
Sun 08:47:18 AM 37.7203 -78.4350 217° Southwest 447 514 25,900 1,000 Climbing Washington Center
Sun 08:48:19 AM 37.6222 -78.5283 217° Southwest 447 514 26,900 984 Climbing Washington Center
Sun 08:49:20 AM 37.5219 -78.6214 216° Southwest 447 514 27,900 934 Climbing Washington Center
Sun 08:50:21 AM 37.4214 -78.7142 216° Southwest 447 514 28,800 864 Climbing Washington Center
Sun 08:51:18 AM 37.3103 -78.8192 217° Southwest 453 521 29,600 763 Climbing Washington Center
Sun 08:52:19 AM 37.2075 -78.9142 216° Southwest 458 527 30,300 689 Climbing Washington Center
Sun 08:53:20 AM 37.1003 -79.0136 217° Southwest 468 539 31,000 639 Climbing Washington Center
Sun 08:54:21 AM 36.9953 -79.1078 216° Southwest 468 539 31,600 661 Climbing Washington Center
Sun 08:55:18 AM 36.8922 -79.2044 217° Southwest 468 539 32,300 712 Climbing Washington Center
Sun 08:56:19 AM 36.7978 -79.2908 216° Southwest 468 539 33,000 725 Climbing Washington Center
Sun 08:58:45 AM 36.5306 -79.5356 216° Southwest 481 554 34,800 728 Climbing Atlanta Center
Sun 08:59:45 AM 36.4233 -79.6319 216° Southwest 481 554 35,500 600 Climbing Atlanta Center
Sun 09:00:45 AM 36.3183 -79.7278 216° Southwest 481 554 36,000 250 Climbing Atlanta Center
Sun 09:01:45 AM 36.2111 -79.8236 216° Southwest 481 554 36,000  Level Atlanta Center
Sun 09:02:45 AM 36.1200 -79.9056 216° Southwest 481 554 36,000  Level Atlanta Center
Sun 09:03:45 AM 36.0081 -79.9856 210° Southwest 476 548 36,000  Level Atlanta Center
Sun 09:04:45 AM 35.8842 -80.0278 195° South 455 524 36,000 -400 Level Atlanta Center
Sun 09:05:45 AM 35.7458 -80.0728 195° South 469 540 35,200 -750 Descending Atlanta Center
Sun 09:06:45 AM 35.6161 -80.1175 196° South 474 545 34,500 -600 Descending Atlanta Center
Sun 09:07:45 AM 35.4922 -80.1592 195° South 474 545 34,000 -250 Descending Atlanta Center
Sun 09:08:45 AM 35.3661 -80.1981 194° South 469 540 34,000  Level Atlanta Center
Sun 09:09:45 AM 35.2442 -80.2394 195° South 469 540 34,000  Level Atlanta Center
Sun 09:11:29 AM 35.0386 -80.3067 195° South 448 516 34,000  Level Jacksonville Center
Sun 09:12:29 AM 34.9144 -80.3483 195° South 453 521 34,000  Level Jacksonville Center
Sun 09:13:29 AM 34.7878 -80.3850 193° South 471 542 34,000  Level Jacksonville Center
Sun 09:14:29 AM 34.6614 -80.4292 196° South 465 535 34,000  Level Jacksonville Center
Sun 09:15:29 AM 34.5350 -80.4681 194° South 471 542 34,000  Level Jacksonville Center
Sun 09:16:29 AM 34.4086 -80.5067 194° South 471 542 34,000  Level Jacksonville Center
Sun 09:17:29 AM 34.2819 -80.5478 195° South 471 542 34,000  Level Jacksonville Center
Sun 09:18:29 AM 34.1533 -80.5889 195° South 471 542 34,000  Level Jacksonville Center
Sun 09:19:29 AM 34.0247 -80.6300 195° South 471 542 34,000  Level Jacksonville Center
Sun 09:20:29 AM 33.8942 -80.6708 195° South 471 542 34,000  Level Jacksonville Center
Sun 09:21:29 AM 33.7653 -80.7092 194° South 471 542 34,000  Level Jacksonville Center
Sun 09:22:29 AM 33.6367 -80.7497 195° South 471 542 34,000  Level Jacksonville Center
Sun 09:23:29 AM 33.5058 -80.7878 194° South 471 542 34,000  Level Jacksonville Center
Sun 09:24:29 AM 33.3792 -80.8281 195° South 471 542 34,000  Level Jacksonville Center
Sun 09:25:29 AM 33.2483 -80.8683 194° South 476 548 34,000  Level Jacksonville Center
Sun 09:26:29 AM 33.1217 -80.9108 196° South 476 548 34,000 -350 Level Jacksonville Center
Sun 09:27:29 AM 32.9783 -80.9511 193° South 476 548 33,300 -750 Descending Jacksonville Center
Sun 09:28:29 AM 32.8517 -80.9911 195° South 476 548 32,500 -900 Descending Jacksonville Center
Sun 09:29:29 AM 32.7228 -81.0283 194° South 476 548 31,500 -1,000 Descending Jacksonville Center
Sun 09:30:29 AM 32.5981 -81.0678 195° South 464 534 30,500 -750 Descending Jacksonville Center
Sun 09:31:29 AM 32.4836 -81.1022 194° South 478 550 30,000 -350 Descending Jacksonville Center
Sun 09:32:29 AM 32.3422 -81.1419 193° South 472 543 29,800 -700 Descending Jacksonville Center
Sun 09:33:29 AM 32.2197 -81.1786 194° South 465 535 28,600 -1,450 Descending Jacksonville Center
Sun 09:34:29 AM 32.0947 -81.2006 188° South 460 529 26,900 -1,650 Descending Jacksonville Center
Sun 09:35:29 AM 31.9736 -81.2028 181° South 450 518 25,300 -1,500 Descending Jacksonville Center
Sun 09:36:29 AM 31.8589 -81.2072 182° South 429 494 23,900 -1,450 Descending Jacksonville Center
Sun 09:37:29 AM 31.7569 -81.2361 194° South 421 484 22,400 -1,800 Descending Jacksonville Center
Sun 09:38:29 AM 31.6364 -81.2722 194° South 411 473 20,300 -2,050 Descending Jacksonville Center
Sun 09:39:29 AM 31.5261 -81.3058 195° South 416 479 18,300 -2,000 Descending Jacksonville Center
Sun 09:40:29 AM 31.4303 -81.3344 194° South 400 460 16,300 -2,202 Descending Jacksonville Center
Sun 09:41:18 AM 31.3325 -81.3653 195° South 383 441 14,300 -2,077 Descending Jacksonville Center
Sun 09:42:13 AM 31.2431 -81.3886 193° South 363 418 12,700 -1,655 Descending Jacksonville Center
Sun 09:43:14 AM 31.1453 -81.4142 193° South 349 402 11,100 -1,409 Descending Jacksonville Center
Sun 09:44:08 AM 31.0597 -81.4253 186° South 343 395 10,000 -545 Descending Jacksonville Center
Sun 09:45:15 AM 30.9706 -81.4631 200° South 312 359 10,000 -563 Level Jacksonville Center
Sun 09:46:16 AM 30.9106 -81.5269 222° Southwest 277 319 8,800 -1,641 Descending Jacksonville Center
Sun 09:47:23 AM 30.8486 -81.5956 224° Southwest 264 304 6,500 -1,969 Descending Jacksonville Center
Sun 09:48:24 AM 30.7972 -81.6544 225° Southwest 251 289 4,600 -1,623 Descending Jacksonville Center
Sun 09:49:25 AM 30.7453 -81.6864 208° Southwest 245 282 3,200 -787 Descending Jacksonville Center
Sun 09:50:26 AM 30.6822 -81.6631 162° South 197 227 3,000 -328 Descending Jacksonville Center
Sun 09:51:33 AM 30.6319 -81.6275 149° Southeast 193 222 2,500 -590 Descending Jacksonville Center
Sun 09:52:28 AM 30.5878 -81.6064 158° South 182 209 1,800 -550 Descending Jacksonville Center
Sun 09:53:22 AM 30.5461 -81.6094 184° South 162 186 1,500 -574 Descending Jacksonville Center
Sun 09:54:23 AM 30.5172 -81.6364 219° Southwest 119 137 700 -689 Descending Jacksonville Center
Sun 09:55:24 AM 30.5069 -81.6725 252° West 125 144 100 -590 Descending Jacksonville Center
Sun 09:57:00 AM 30.4833 -81.6833 311° West  Level FlightAware Approximate

Login

Don't have an account? Register now (free) for customized features, flight alerts, and more!